createdAt,value
2023-01-07T00:01:24.555Z,8.90
2023-01-07T00:03:53.886Z,8.90
2023-01-07T00:06:24.147Z,8.90
2023-01-07T00:08:55.179Z,8.90
2023-01-07T00:11:28.115Z,8.90
2023-01-07T00:13:57.548Z,8.90
2023-01-07T00:16:28.290Z,8.90
2023-01-07T00:19:00.540Z,8.90
2023-01-07T00:21:29.821Z,8.90
2023-01-07T00:23:59.195Z,8.90
2023-01-07T00:26:31.493Z,8.90
2023-01-07T00:29:00.066Z,8.90
2023-01-07T00:31:29.578Z,8.90
2023-01-07T00:34:08.938Z,8.90
2023-01-07T00:36:39.838Z,8.90
2023-01-07T00:39:10.212Z,8.90
2023-01-07T00:41:39.903Z,8.90
2023-01-07T00:44:08.796Z,8.90
2023-01-07T00:46:36.790Z,8.80
2023-01-07T00:49:04.805Z,8.80
2023-01-07T00:51:32.791Z,8.80
2023-01-07T00:54:00.760Z,8.80
2023-01-07T00:56:28.972Z,8.80
2023-01-07T00:58:58.216Z,8.80
2023-01-07T01:01:26.456Z,8.80
2023-01-07T01:03:54.456Z,8.70
2023-01-07T01:06:22.478Z,8.70
2023-01-07T01:08:50.412Z,8.70
2023-01-07T01:11:18.733Z,8.70
2023-01-07T01:13:47.803Z,8.70
2023-01-07T01:16:19.263Z,8.70
2023-01-07T01:18:47.549Z,8.70
2023-01-07T01:21:17.239Z,8.70
2023-01-07T01:23:45.272Z,8.70
2023-01-07T01:26:15.376Z,8.70
2023-01-07T01:28:44.595Z,8.70
2023-01-07T01:31:12.625Z,8.80
2023-01-07T01:33:42.088Z,8.70
2023-01-07T01:36:13.171Z,8.80
2023-01-07T01:38:41.526Z,8.80
2023-01-07T01:41:09.891Z,8.80
2023-01-07T01:43:39.835Z,8.80
2023-01-07T01:46:13.874Z,8.70
2023-01-07T01:48:47.510Z,8.80
2023-01-07T01:51:16.723Z,8.80
2023-01-07T01:53:45.529Z,8.80
2023-01-07T01:56:17.309Z,8.90
2023-01-07T01:58:49.530Z,8.80
2023-01-07T02:01:17.753Z,8.80
2023-01-07T02:03:49.403Z,8.80
2023-01-07T02:06:22.351Z,8.80
2023-01-07T02:08:50.943Z,8.80
2023-01-07T02:11:30.220Z,8.80
2023-01-07T02:14:13.217Z,8.70
2023-01-07T02:16:49.621Z,8.80
2023-01-07T02:20:02.187Z,8.80
2023-01-07T02:22:51.138Z,8.80
2023-01-07T02:25:43.134Z,8.80
2023-01-07T02:28:35.671Z,8.70
2023-01-07T02:31:24.732Z,8.80
2023-01-07T02:33:59.499Z,8.70
2023-01-07T02:36:48.604Z,8.70
2023-01-07T02:39:44.580Z,8.70
2023-01-07T02:42:23.426Z,8.70
2023-01-07T02:44:59.900Z,8.70
2023-01-07T02:47:30.602Z,8.60
2023-01-07T02:49:59.967Z,8.60
2023-01-07T02:52:30.252Z,8.60
2023-01-07T02:55:01.018Z,8.60
2023-01-07T02:57:44.973Z,8.60
2023-01-07T03:00:21.716Z,8.50
2023-01-07T03:03:21.890Z,8.50
2023-01-07T03:06:06.750Z,8.60
2023-01-07T03:08:46.395Z,8.50
2023-01-07T03:11:14.844Z,8.50
2023-01-07T03:13:49.245Z,8.60
2023-01-07T03:16:21.500Z,8.50
2023-01-07T03:18:55.964Z,8.50
2023-01-07T03:21:28.143Z,8.50
2023-01-07T03:23:58.151Z,8.50
2023-01-07T03:26:31.309Z,8.50
2023-01-07T03:29:01.379Z,8.50
2023-01-07T03:31:30.757Z,8.50
2023-01-07T03:34:04.179Z,8.50
2023-01-07T03:36:37.323Z,8.50
2023-01-07T03:39:07.277Z,8.50
2023-01-07T03:41:58.094Z,8.50
2023-01-07T03:44:26.043Z,8.40
2023-01-07T03:46:54.694Z,8.40
2023-01-07T03:49:22.721Z,8.40
2023-01-07T03:51:54.379Z,8.40
2023-01-07T03:54:23.415Z,8.40
2023-01-07T03:56:51.402Z,8.40
2023-01-07T03:59:19.477Z,8.40
2023-01-07T04:01:47.602Z,8.30
2023-01-07T04:04:15.970Z,8.40
2023-01-07T04:06:43.950Z,8.40
2023-01-07T04:09:15.029Z,8.40
2023-01-07T04:11:43.214Z,8.40
2023-01-07T04:14:11.370Z,8.40
2023-01-07T04:16:39.345Z,8.40
2023-01-07T04:19:07.364Z,8.40
2023-01-07T04:21:35.361Z,8.30
2023-01-07T04:24:03.359Z,8.30
2023-01-07T04:26:33.789Z,8.30
2023-01-07T04:29:01.739Z,8.30
2023-01-07T04:31:32.347Z,8.30
2023-01-07T04:34:00.342Z,8.30
2023-01-07T04:36:28.337Z,8.30
2023-01-07T04:38:56.307Z,8.30
2023-01-07T04:41:24.448Z,8.30
2023-01-07T04:43:53.705Z,8.30
2023-01-07T04:46:21.773Z,8.30
2023-01-07T04:48:49.763Z,8.30
2023-01-07T04:51:20.287Z,8.30
2023-01-07T04:53:48.464Z,8.30
2023-01-07T04:56:16.565Z,8.30
2023-01-07T04:58:44.845Z,8.20
2023-01-07T05:01:14.242Z,8.20
2023-01-07T05:03:42.315Z,8.20
2023-01-07T05:06:10.451Z,8.20
2023-01-07T05:08:38.375Z,8.20
2023-01-07T05:11:06.967Z,8.20
2023-01-07T05:13:36.205Z,8.10
2023-01-07T05:16:04.448Z,8.10
2023-01-07T05:18:33.751Z,8.20
2023-01-07T05:21:01.835Z,8.10
2023-01-07T05:23:29.740Z,8.20
2023-01-07T05:26:00.474Z,8.10
2023-01-07T05:28:28.484Z,8.10
2023-01-07T05:30:56.470Z,8.10
2023-01-07T05:33:24.397Z,8.10
2023-01-07T05:35:53.630Z,8.10
2023-01-07T05:38:21.807Z,8.10
2023-01-07T05:40:50.335Z,8.10
2023-01-07T05:43:18.667Z,8.10
2023-01-07T05:45:47.003Z,8.00
2023-01-07T05:48:15.548Z,8.00
2023-01-07T05:50:44.221Z,8.00
2023-01-07T05:53:13.782Z,8.00
2023-01-07T05:55:41.715Z,8.10
2023-01-07T05:58:10.213Z,8.00
2023-01-07T06:00:38.569Z,8.10
2023-01-07T06:03:07.126Z,8.00
2023-01-07T06:05:35.117Z,8.00
2023-01-07T06:08:03.070Z,8.00
2023-01-07T06:10:32.592Z,8.00
2023-01-07T06:13:02.070Z,7.90
2023-01-07T06:15:30.139Z,8.00
2023-01-07T06:17:58.505Z,8.00
2023-01-07T06:20:26.591Z,8.00
2023-01-07T06:22:54.996Z,8.00
2023-01-07T06:25:22.913Z,7.90
2023-01-07T06:27:52.253Z,8.00
2023-01-07T06:30:20.295Z,8.00
2023-01-07T06:32:48.168Z,8.00
2023-01-07T06:35:16.123Z,8.00
2023-01-07T06:37:44.131Z,8.00
2023-01-07T06:40:12.824Z,8.00
2023-01-07T06:42:41.086Z,8.00
2023-01-07T06:45:11.475Z,8.00
2023-01-07T06:47:39.597Z,8.00
2023-01-07T06:50:08.210Z,7.90
2023-01-07T06:52:36.132Z,7.90
2023-01-07T06:55:04.434Z,7.90
2023-01-07T06:57:32.643Z,7.90
2023-01-07T07:00:00.579Z,7.90
2023-01-07T07:02:32.595Z,7.90
2023-01-07T07:05:01.001Z,7.90
2023-01-07T07:07:29.160Z,7.90
2023-01-07T07:09:57.101Z,7.90
2023-01-07T07:12:25.182Z,7.90
2023-01-07T07:14:53.216Z,7.90
2023-01-07T07:17:21.266Z,7.90
2023-01-07T07:19:50.715Z,7.90
2023-01-07T07:22:18.677Z,7.90
2023-01-07T07:24:46.631Z,7.90
2023-01-07T07:27:14.785Z,7.90
2023-01-07T07:29:42.741Z,8.00
2023-01-07T07:32:10.782Z,8.00
2023-01-07T07:34:38.688Z,7.90
2023-01-07T07:37:08.150Z,7.90
2023-01-07T07:39:36.253Z,7.90
2023-01-07T07:42:04.780Z,7.90
2023-01-07T07:44:32.846Z,8.00
2023-01-07T07:47:00.926Z,8.00
2023-01-07T07:49:29.054Z,8.00
2023-01-07T07:51:57.160Z,8.00
2023-01-07T07:54:28.128Z,8.00
2023-01-07T07:56:56.163Z,8.00
2023-01-07T07:59:24.164Z,8.00
2023-01-07T08:01:52.218Z,8.00
2023-01-07T08:04:20.222Z,8.00
2023-01-07T08:06:48.276Z,8.10
2023-01-07T08:09:18.627Z,8.10
2023-01-07T08:11:47.942Z,8.10
2023-01-07T08:14:16.121Z,8.10
2023-01-07T08:16:44.105Z,8.10
2023-01-07T08:19:12.955Z,8.20
2023-01-07T08:21:41.045Z,8.30
2023-01-07T08:24:11.208Z,8.30
2023-01-07T08:26:39.223Z,8.30
2023-01-07T08:29:08.837Z,8.30
2023-01-07T08:31:36.964Z,8.40
2023-01-07T08:34:04.963Z,8.40
2023-01-07T08:36:32.839Z,8.50
2023-01-07T08:39:00.760Z,8.50
2023-01-07T08:41:28.732Z,8.50
2023-01-07T08:43:56.637Z,8.50
2023-01-07T08:46:26.006Z,8.60
2023-01-07T08:48:54.139Z,8.60
2023-01-07T08:51:22.299Z,8.50
2023-01-07T08:53:50.432Z,8.50
2023-01-07T08:56:18.360Z,8.50
2023-01-07T08:58:46.367Z,8.50
2023-01-07T09:01:14.541Z,8.50
2023-01-07T09:03:43.983Z,8.50
2023-01-07T09:06:15.097Z,8.50
2023-01-07T09:08:43.043Z,8.60
2023-01-07T09:11:11.121Z,8.50
2023-01-07T09:13:39.044Z,8.60
2023-01-07T09:16:07.918Z,8.60
2023-01-07T09:18:35.884Z,8.50
2023-01-07T09:21:05.220Z,8.60
2023-01-07T09:23:33.105Z,8.60
2023-01-07T09:26:01.068Z,8.60
2023-01-07T09:28:30.209Z,8.60
2023-01-07T09:31:00.398Z,8.60
2023-01-07T09:33:28.516Z,8.70
2023-01-07T09:35:56.576Z,8.60
2023-01-07T09:38:28.632Z,8.70
2023-01-07T09:40:57.784Z,8.70
2023-01-07T09:43:59.759Z,8.80
2023-01-07T09:46:22.341Z,8.80
2023-01-07T09:48:56.739Z,8.80
2023-01-07T09:51:30.311Z,8.90
2023-01-07T09:54:03.222Z,8.90
2023-01-07T09:56:33.563Z,8.90
2023-01-07T09:59:02.702Z,9.00
2023-01-07T10:01:39.784Z,9.00
2023-01-07T10:04:24.175Z,9.00
2023-01-07T10:07:00.154Z,8.90
2023-01-07T10:09:39.064Z,9.10
2023-01-07T10:12:16.634Z,9.00
2023-01-07T10:15:06.288Z,9.10
2023-01-07T10:17:57.598Z,9.20
2023-01-07T10:20:34.362Z,9.20
2023-01-07T10:23:05.587Z,9.20
2023-01-07T10:25:42.094Z,9.40
2023-01-07T10:28:15.272Z,9.60
2023-01-07T10:30:48.161Z,9.60
2023-01-07T10:33:25.031Z,9.70
2023-01-07T10:36:01.031Z,9.50
2023-01-07T10:38:34.197Z,9.50
2023-01-07T10:41:08.513Z,9.40
2023-01-07T10:43:51.240Z,9.50
2023-01-07T10:46:32.164Z,9.60
2023-01-07T10:49:17.526Z,9.70
2023-01-07T10:52:07.259Z,9.90
2023-01-07T10:54:59.116Z,10.00
2023-01-07T10:57:31.515Z,10.00
2023-01-07T11:00:03.692Z,10.10
2023-01-07T11:02:32.256Z,10.10
2023-01-07T11:05:00.943Z,9.80
2023-01-07T11:07:34.125Z,9.80
2023-01-07T11:10:05.385Z,9.80
2023-01-07T11:12:41.035Z,9.80
2023-01-07T11:15:17.085Z,9.90
2023-01-07T11:17:49.982Z,10.00
2023-01-07T11:20:43.483Z,10.00
2023-01-07T11:23:29.221Z,10.10
2023-01-07T11:26:09.209Z,10.10
2023-01-07T11:28:41.899Z,10.20
2023-01-07T11:31:10.408Z,10.20
2023-01-07T11:34:02.206Z,10.30
2023-01-07T11:36:53.502Z,10.30
2023-01-07T11:42:35.771Z,10.20
2023-01-07T11:45:16.188Z,10.20
2023-01-07T11:47:51.250Z,10.20
2023-01-07T11:50:28.219Z,10.20
2023-01-07T11:53:01.173Z,10.20
2023-01-07T11:55:30.115Z,10.10
2023-01-07T11:58:28.637Z,10.10
2023-01-07T12:01:05.214Z,10.10
2023-01-07T12:03:33.301Z,10.10
2023-01-07T12:06:08.397Z,10.10
2023-01-07T12:08:36.731Z,10.10
2023-01-07T12:11:09.301Z,10.10
2023-01-07T12:13:41.095Z,10.10
2023-01-07T12:16:11.161Z,10.10
2023-01-07T12:18:57.447Z,10.10
2023-01-07T12:21:36.166Z,10.10
2023-01-07T12:24:28.213Z,10.10
2023-01-07T12:27:03.136Z,10.10
2023-01-07T12:29:42.194Z,10.10
2023-01-07T12:32:24.711Z,10.00
2023-01-07T12:34:58.817Z,10.00
2023-01-07T12:37:46.582Z,10.00
2023-01-07T12:40:24.744Z,9.90
2023-01-07T12:43:00.264Z,9.90
2023-01-07T12:45:32.540Z,9.90
2023-01-07T12:48:28.162Z,9.90
2023-01-07T12:51:18.311Z,9.90
2023-01-07T12:53:57.481Z,9.90
2023-01-07T12:56:32.347Z,9.90
2023-01-07T12:59:05.626Z,9.90
2023-01-07T13:01:39.073Z,9.80
2023-01-07T13:04:17.842Z,9.80
2023-01-07T13:06:52.270Z,9.90
2023-01-07T13:09:28.550Z,9.90
2023-01-07T13:12:40.504Z,9.90
2023-01-07T13:15:16.092Z,9.80
2023-01-07T13:17:44.233Z,9.80
2023-01-07T13:20:18.663Z,9.80
2023-01-07T13:22:50.553Z,9.80
2023-01-07T13:25:32.919Z,9.80
2023-01-07T13:28:25.063Z,9.80
2023-01-07T13:31:08.379Z,9.90
2023-01-07T13:33:46.894Z,9.80
2023-01-07T13:36:26.411Z,9.80
2023-01-07T13:39:21.130Z,9.80
2023-01-07T13:42:02.931Z,9.80
2023-01-07T13:45:06.726Z,9.80
2023-01-07T13:47:48.108Z,9.80
2023-01-07T13:50:26.045Z,9.80
2023-01-07T13:53:01.326Z,9.80
2023-01-07T13:55:34.599Z,9.90
2023-01-07T13:58:03.811Z,9.90
2023-01-07T14:00:44.884Z,9.90
2023-01-07T14:03:44.266Z,9.80
2023-01-07T14:06:46.767Z,9.80
2023-01-07T14:09:34.961Z,9.80
2023-01-07T14:12:35.653Z,9.80
2023-01-07T14:15:55.090Z,9.80
2023-01-07T14:19:08.475Z,9.90
2023-01-07T14:21:53.525Z,9.80
2023-01-07T14:24:48.887Z,9.70
2023-01-07T14:27:35.227Z,9.80
2023-01-07T14:30:17.221Z,9.70
2023-01-07T14:32:48.667Z,9.70
2023-01-07T14:35:31.787Z,9.70
2023-01-07T14:38:00.222Z,9.70
2023-01-07T14:41:07.838Z,9.70
2023-01-07T14:44:03.190Z,9.70
2023-01-07T14:46:51.535Z,9.70
2023-01-07T14:50:04.558Z,9.70
2023-01-07T14:53:07.655Z,9.70
2023-01-07T14:56:08.830Z,9.70
2023-01-07T14:58:45.084Z,9.70
2023-01-07T15:01:41.360Z,9.70
2023-01-07T15:04:35.269Z,9.70
2023-01-07T15:07:05.017Z,9.60
2023-01-07T15:09:57.986Z,9.60
2023-01-07T15:12:51.009Z,9.70
2023-01-07T15:15:42.195Z,9.70
2023-01-07T15:18:12.187Z,9.70
2023-01-07T15:20:52.488Z,9.60
2023-01-07T15:23:28.143Z,9.50
2023-01-07T15:26:02.479Z,9.50
2023-01-07T15:28:42.166Z,9.50
2023-01-07T15:31:17.960Z,9.50
2023-01-07T15:34:07.634Z,9.60
2023-01-07T15:36:40.923Z,9.60
2023-01-07T15:39:18.002Z,9.60
2023-01-07T15:41:46.732Z,9.60
2023-01-07T15:44:21.332Z,9.60
2023-01-07T15:46:49.445Z,9.50
2023-01-07T15:49:23.824Z,9.50
2023-01-07T15:51:54.707Z,9.40
2023-01-07T15:54:30.391Z,9.40
2023-01-07T15:57:03.582Z,9.50
2023-01-07T15:59:34.970Z,9.40
2023-01-07T16:02:14.856Z,9.40
2023-01-07T16:04:44.125Z,9.40
2023-01-07T16:07:27.038Z,9.40
2023-01-07T16:09:55.820Z,9.40
2023-01-07T16:12:33.445Z,9.40
2023-01-07T16:15:05.110Z,9.40
2023-01-07T16:17:33.399Z,9.30
2023-01-07T16:20:21.365Z,9.30
2023-01-07T16:22:49.696Z,9.30
2023-01-07T16:25:24.188Z,9.30
2023-01-07T16:27:52.454Z,9.20
2023-01-07T16:30:24.338Z,9.20
2023-01-07T16:32:54.700Z,9.10
2023-01-07T16:35:29.888Z,8.90
2023-01-07T16:37:58.045Z,8.80
2023-01-07T16:40:32.085Z,8.70
2023-01-07T16:43:00.080Z,8.60
2023-01-07T16:45:32.385Z,8.50
2023-01-07T16:48:19.963Z,8.40
2023-01-07T16:50:49.806Z,8.30
2023-01-07T16:53:29.902Z,8.10
2023-01-07T16:56:21.744Z,8.10
2023-01-07T16:58:52.804Z,8.10
2023-01-07T17:01:30.985Z,8.00
2023-01-07T17:04:00.852Z,7.90
2023-01-07T17:06:37.585Z,7.90
2023-01-07T17:09:06.266Z,7.90
2023-01-07T17:11:38.416Z,7.80
2023-01-07T17:14:45.214Z,7.80
2023-01-07T17:17:30.787Z,7.70
2023-01-07T17:20:15.274Z,7.70
2023-01-07T17:22:47.233Z,7.60
2023-01-07T17:25:16.467Z,7.50
2023-01-07T17:27:49.752Z,7.40
2023-01-07T17:30:20.425Z,7.40
2023-01-07T17:32:51.203Z,7.50
2023-01-07T17:35:21.082Z,7.40
2023-01-07T17:37:49.359Z,7.30
2023-01-07T17:40:18.410Z,7.30
2023-01-07T17:43:04.842Z,7.20
2023-01-07T17:45:33.294Z,7.20
2023-01-07T17:48:02.598Z,7.10
2023-01-07T17:50:37.322Z,7.00
2023-01-07T17:53:05.886Z,6.90
2023-01-07T17:55:36.756Z,7.00
2023-01-07T17:58:05.786Z,6.90
2023-01-07T18:00:36.608Z,6.90
2023-01-07T18:03:07.126Z,6.80
2023-01-07T18:05:35.046Z,6.70
2023-01-07T18:08:03.001Z,6.60
2023-01-07T18:10:51.980Z,6.50
2023-01-07T18:13:22.109Z,6.60
2023-01-07T18:15:55.765Z,6.40
2023-01-07T18:18:35.841Z,6.40
2023-01-07T18:21:03.872Z,6.40
2023-01-07T18:23:31.805Z,6.30
2023-01-07T18:25:59.812Z,6.30
2023-01-07T18:28:28.037Z,6.30
2023-01-07T18:30:56.070Z,6.30
2023-01-07T18:33:25.451Z,6.30
2023-01-07T18:35:53.545Z,6.20
2023-01-07T18:38:21.609Z,6.30
2023-01-07T18:40:49.869Z,6.30
2023-01-07T18:43:19.820Z,6.30
2023-01-07T18:45:56.150Z,6.30
2023-01-07T18:48:25.910Z,6.40
2023-01-07T18:50:54.023Z,6.30
2023-01-07T18:53:26.544Z,6.40
2023-01-07T18:56:02.013Z,6.50
2023-01-07T18:58:30.058Z,6.40
2023-01-07T19:01:03.381Z,6.40
2023-01-07T19:03:32.860Z,6.40
2023-01-07T19:06:01.039Z,6.30
2023-01-07T19:08:29.393Z,6.40
2023-01-07T19:10:57.495Z,6.30
2023-01-07T19:13:25.527Z,6.30
2023-01-07T19:15:53.501Z,6.40
2023-01-07T19:18:23.573Z,6.40
2023-01-07T19:20:52.922Z,6.30
2023-01-07T19:23:21.140Z,6.40
2023-01-07T19:25:58.333Z,6.30
2023-01-07T19:28:40.517Z,6.30
2023-01-07T19:31:10.759Z,6.40
2023-01-07T19:33:39.517Z,6.60
2023-01-07T19:36:11.427Z,6.60
2023-01-07T19:38:40.505Z,6.70
2023-01-07T19:41:09.722Z,6.70
2023-01-07T19:43:44.642Z,6.60
2023-01-07T19:46:14.375Z,6.60
2023-01-07T19:48:43.285Z,6.70
2023-01-07T19:51:12.727Z,6.60
2023-01-07T19:53:40.934Z,6.60
2023-01-07T19:56:10.789Z,6.80
2023-01-07T19:58:39.329Z,6.70
2023-01-07T20:01:09.529Z,6.80
2023-01-07T20:03:38.478Z,6.70
2023-01-07T20:06:08.398Z,6.60
2023-01-07T20:08:38.852Z,6.60
2023-01-07T20:11:07.291Z,6.50
2023-01-07T20:13:37.393Z,6.40
2023-01-07T20:16:52.915Z,6.40
2023-01-07T20:19:23.495Z,6.40
2023-01-07T20:21:51.767Z,6.40
2023-01-07T20:24:29.820Z,6.30
2023-01-07T20:27:00.248Z,6.20
2023-01-07T20:29:28.579Z,6.20
2023-01-07T20:31:56.894Z,6.10
2023-01-07T20:34:25.388Z,6.20
2023-01-07T20:36:54.099Z,6.10
2023-01-07T20:39:23.576Z,6.00
2023-01-07T20:41:54.776Z,6.00
2023-01-07T20:44:23.075Z,6.00
2023-01-07T20:46:53.959Z,6.10
2023-01-07T20:49:23.460Z,6.20
2023-01-07T20:51:53.258Z,6.20
2023-01-07T20:54:22.050Z,6.30
2023-01-07T20:56:52.031Z,6.20
2023-01-07T20:59:20.293Z,6.20
2023-01-07T21:01:48.564Z,6.30
2023-01-07T21:04:16.692Z,6.30
2023-01-07T21:06:44.767Z,6.40
2023-01-07T21:09:13.040Z,6.40
2023-01-07T21:11:43.139Z,6.40
2023-01-07T21:14:12.573Z,6.40
2023-01-07T21:16:40.945Z,6.40
2023-01-07T21:19:09.126Z,6.40
2023-01-07T21:21:37.444Z,6.40
2023-01-07T21:24:05.728Z,6.40
2023-01-07T21:26:34.448Z,6.40
2023-01-07T21:29:02.487Z,6.40
2023-01-07T21:31:31.820Z,6.40
2023-01-07T21:33:59.983Z,6.40
2023-01-07T21:36:29.121Z,6.40
2023-01-07T21:38:59.248Z,6.50
2023-01-07T21:41:28.659Z,6.50
2023-01-07T21:43:57.998Z,6.60
2023-01-07T21:46:27.093Z,6.60
2023-01-07T21:48:56.873Z,6.60
2023-01-07T21:51:26.823Z,6.50
2023-01-07T21:54:01.255Z,6.60
2023-01-07T21:56:33.008Z,6.70
2023-01-07T21:59:01.642Z,6.80
2023-01-07T22:01:42.535Z,6.80
2023-01-07T22:04:12.281Z,6.90
2023-01-07T22:06:43.652Z,6.80
2023-01-07T22:09:15.466Z,6.80
2023-01-07T22:11:44.189Z,6.80
2023-01-07T22:14:15.120Z,6.80
2023-01-07T22:16:43.817Z,6.90
2023-01-07T22:19:14.441Z,7.00
2023-01-07T22:21:43.662Z,7.00
2023-01-07T22:24:11.627Z,7.00
2023-01-07T22:26:41.151Z,7.00
2023-01-07T22:29:09.537Z,7.00
2023-01-07T22:31:38.406Z,7.00
2023-01-07T22:34:07.746Z,7.00
2023-01-07T22:36:45.261Z,6.90
2023-01-07T22:39:25.751Z,6.90
2023-01-07T22:41:59.174Z,6.90
2023-01-07T22:44:30.252Z,6.90
2023-01-07T22:47:00.565Z,6.90
2023-01-07T22:49:31.763Z,6.90
2023-01-07T22:52:04.302Z,6.90
2023-01-07T22:54:34.342Z,6.90
2023-01-07T22:57:02.421Z,6.90
2023-01-07T22:59:30.577Z,6.80
2023-01-07T23:02:01.395Z,6.80
2023-01-07T23:04:29.918Z,6.80
2023-01-07T23:06:57.956Z,6.90
2023-01-07T23:09:27.705Z,6.80
2023-01-07T23:11:59.476Z,6.80
2023-01-07T23:14:28.842Z,6.80
2023-01-07T23:17:00.609Z,6.80
2023-01-07T23:19:31.316Z,6.90
2023-01-07T23:22:03.485Z,6.90
2023-01-07T23:24:32.865Z,6.90
2023-01-07T23:27:02.532Z,6.90
2023-01-07T23:29:30.547Z,6.90
2023-01-07T23:32:00.765Z,6.90
2023-01-07T23:34:28.752Z,6.90
2023-01-07T23:36:56.784Z,6.90
2023-01-07T23:39:24.659Z,6.90
2023-01-07T23:41:53.918Z,6.90
2023-01-07T23:44:21.875Z,6.90
2023-01-07T23:46:50.079Z,7.00
2023-01-07T23:49:23.860Z,7.00
2023-01-07T23:51:51.925Z,6.90
2023-01-07T23:54:20.274Z,7.00
2023-01-07T23:56:50.400Z,7.00
2023-01-07T23:59:20.296Z,7.00
